createdAt,value
2018-10-02T00:05:57.700Z,13.13
2018-10-02T00:15:59.021Z,8.30
2018-10-02T00:26:00.330Z,10.37
2018-10-02T00:36:01.601Z,9.27
2018-10-02T00:46:02.881Z,9.07
2018-10-02T00:56:04.208Z,9.47
2018-10-02T01:06:05.443Z,9.17
2018-10-02T01:16:06.790Z,4.23
2018-10-02T01:26:08.051Z,2.23
2018-10-02T01:36:09.327Z,1.20
2018-10-02T01:46:10.790Z,2.23
2018-10-02T01:56:12.129Z,1.47
2018-10-02T02:06:13.424Z,3.90
2018-10-02T02:16:14.768Z,3.33
2018-10-02T02:26:16.170Z,2.03
2018-10-02T02:36:17.478Z,2.50
2018-10-02T02:46:18.771Z,2.33
2018-10-02T02:56:20.071Z,1.93
2018-10-02T03:06:21.394Z,2.07
2018-10-02T03:16:22.657Z,2.73
2018-10-02T03:26:23.975Z,2.37
2018-10-02T03:36:26.017Z,2.80
2018-10-02T03:46:27.422Z,3.10
2018-10-02T03:56:28.804Z,3.37
2018-10-02T04:06:30.093Z,3.77
2018-10-02T04:16:32.136Z,2.87
2018-10-02T04:26:33.426Z,4.83
2018-10-02T04:36:34.712Z,2.23
2018-10-02T04:46:37.105Z,2.37
2018-10-02T04:56:38.352Z,4.20
2018-10-02T05:06:39.609Z,2.90
2018-10-02T05:16:41.618Z,3.17
2018-10-02T05:26:43.682Z,4.23
2018-10-02T05:36:44.943Z,2.60
2018-10-02T05:46:46.245Z,2.87
2018-10-02T05:56:47.495Z,3.00
2018-10-02T06:06:48.756Z,2.53
2018-10-02T06:16:50.027Z,3.47
2018-10-02T06:26:51.278Z,6.63
2018-10-02T06:36:52.553Z,19.60
2018-10-02T06:46:53.883Z,11.77
2018-10-02T06:56:55.259Z,9.20
2018-10-02T07:06:56.565Z,6.00
2018-10-02T07:16:57.862Z,8.17
2018-10-02T07:26:59.211Z,7.77
2018-10-02T07:37:00.502Z,9.83
2018-10-02T07:47:01.759Z,6.77
2018-10-02T07:57:03.894Z,6.70
2018-10-02T08:07:05.152Z,4.93
2018-10-02T08:17:06.474Z,5.00
2018-10-02T08:27:07.870Z,3.90
2018-10-02T08:37:09.068Z,5.30
2018-10-02T08:47:11.115Z,3.40
2018-10-02T08:57:12.402Z,4.37
2018-10-02T09:07:14.443Z,7.53
2018-10-02T09:17:15.886Z,1.43
2018-10-02T09:27:17.914Z,2.60
2018-10-02T09:37:19.987Z,0.75
2018-10-02T09:47:21.211Z,0.88
2018-10-02T09:57:23.237Z,3.30
2018-10-02T10:07:25.252Z,1.37
2018-10-02T10:17:27.308Z,0.70
2018-10-02T10:27:28.641Z,1.90
2018-10-02T10:37:29.876Z,0.80
2018-10-02T10:47:31.132Z,1.00
2018-10-02T10:57:32.427Z,1.07
2018-10-02T11:07:34.554Z,0.70
2018-10-02T11:17:36.639Z,0.90
2018-10-02T11:27:37.900Z,0.80
2018-10-02T11:37:39.211Z,1.00
2018-10-02T11:47:41.361Z,1.13
2018-10-02T11:57:42.900Z,0.97
2018-10-02T12:07:44.186Z,0.90
2018-10-02T12:17:45.535Z,0.80
2018-10-02T12:27:46.858Z,1.50
2018-10-02T12:37:48.881Z,4.47
2018-10-02T12:47:50.900Z,1.03
2018-10-02T12:57:52.942Z,2.50
2018-10-02T13:07:54.218Z,1.40
2018-10-02T13:17:55.492Z,1.67
2018-10-02T13:27:57.519Z,1.33
2018-10-02T13:37:59.582Z,2.37
2018-10-02T13:48:01.610Z,0.90
2018-10-02T13:58:02.855Z,3.20
2018-10-02T14:08:04.145Z,1.53
2018-10-02T14:18:05.383Z,1.67
2018-10-02T14:28:06.852Z,2.97
2018-10-02T14:38:08.072Z,1.50
2018-10-02T14:48:09.410Z,3.43
2018-10-02T14:58:10.703Z,1.00
2018-10-02T15:08:12.820Z,3.08
2018-10-02T15:18:14.109Z,1.47
2018-10-02T15:28:15.537Z,1.10
2018-10-02T15:38:18.149Z,1.80
2018-10-02T15:48:20.203Z,2.00
2018-10-02T15:58:21.476Z,3.10
2018-10-02T16:08:22.765Z,3.47
2018-10-02T16:18:24.172Z,4.30
2018-10-02T16:28:25.515Z,5.90
2018-10-02T16:38:26.739Z,3.40
2018-10-02T16:48:28.740Z,3.23
2018-10-02T16:58:30.184Z,3.73
2018-10-02T17:08:32.224Z,9.40
2018-10-02T17:18:33.587Z,6.50
2018-10-02T17:28:34.911Z,8.33
2018-10-02T17:38:37.012Z,6.87
2018-10-02T17:48:38.341Z,5.77
2018-10-02T17:58:39.598Z,7.33
2018-10-02T18:08:40.861Z,8.27
2018-10-02T18:18:42.116Z,7.27
2018-10-02T18:28:43.423Z,4.90
2018-10-02T18:38:45.556Z,7.73
2018-10-02T18:48:47.864Z,9.77
2018-10-02T18:58:49.146Z,10.77
2018-10-02T19:08:50.451Z,9.90
2018-10-02T19:18:52.572Z,10.47
2018-10-02T19:28:53.792Z,7.07
2018-10-02T19:38:55.076Z,7.47
2018-10-02T19:48:56.319Z,7.13
2018-10-02T19:58:57.576Z,4.53
2018-10-02T20:08:58.860Z,5.30
2018-10-02T20:19:00.120Z,6.53
2018-10-02T20:29:01.367Z,9.37
2018-10-02T20:39:02.637Z,8.10
2018-10-02T20:49:04.754Z,6.93
2018-10-02T20:59:05.971Z,11.33
2018-10-02T21:09:07.232Z,9.30
2018-10-02T21:19:09.279Z,8.43
2018-10-02T21:29:10.529Z,6.77
2018-10-02T21:39:12.531Z,6.10
2018-10-02T21:49:13.771Z,9.33
2018-10-02T21:59:15.038Z,8.07
2018-10-02T22:09:16.271Z,7.00
2018-10-02T22:19:17.545Z,6.47
2018-10-02T22:29:19.598Z,6.03
2018-10-02T22:39:20.886Z,7.37
2018-10-02T22:49:22.141Z,7.13
2018-10-02T22:59:24.155Z,7.13
2018-10-02T23:09:25.414Z,6.93
2018-10-02T23:19:26.688Z,5.50
2018-10-02T23:29:27.930Z,5.27
2018-10-02T23:39:29.170Z,5.73
2018-10-02T23:49:30.428Z,6.57
2018-10-02T23:59:31.664Z,7.80
